Time;durP1;ratioP1;P1;durP2;ratioP2;P2;SDS_P1;SDS_P2;PMS_P1;PMS_P2;Temp;Humidity;BMP_temperature;BMP_pressure;BME280_temperature;BME280_humidity;BME280_pressure;Samples;Min_cycle;Max_cycle;Signal;HPM_P1;HPM_P2
2022/12/04 00:04:06;;;;;;;49.80;30.00;;;;;;;-0.47;100.00;101474.22;10473079;28;21125;-85
2022/12/04 00:09:07;;;;;;;47.55;27.10;;;;;;;-0.49;100.00;101483.44;10443260;28;20058;-85
2022/12/04 00:14:10;;;;;;;46.83;28.67;;;;;;;-0.45;100.00;101489.78;10473256;28;20097;-86
2022/12/04 00:19:10;;;;;;;56.33;33.70;;;;;;;-0.45;100.00;101474.38;10425466;28;20044;-85
2022/12/04 00:24:11;;;;;;;53.40;31.35;;;;;;;-0.36;99.93;101475.28;10441318;28;20116;-85
2022/12/04 00:29:12;;;;;;;51.25;29.13;;;;;;;-0.41;100.00;101478.16;10438453;28;20393;-85
2022/12/04 00:34:12;;;;;;;50.88;31.40;;;;;;;-0.43;100.00;101474.53;10443401;28;20049;-84
2022/12/04 00:39:13;;;;;;;55.55;31.17;;;;;;;-0.45;100.00;101476.94;10459395;28;20040;-85
2022/12/04 00:44:13;;;;;;;55.22;31.95;;;;;;;-0.39;100.00;101474.09;10468698;28;20106;-81
2022/12/04 00:49:14;;;;;;;46.70;31.23;;;;;;;-0.37;100.00;101478.63;10440355;28;20379;-86
2022/12/04 00:54:14;;;;;;;55.38;34.65;;;;;;;-0.39;100.00;101469.84;10423783;28;20064;-84
2022/12/04 00:59:15;;;;;;;57.17;33.63;;;;;;;-0.39;100.00;101459.56;10429187;28;20037;-88
2022/12/04 01:04:15;;;;;;;56.88;34.05;;;;;;;-0.38;100.00;101471.66;10438338;28;20112;-86
2022/12/04 01:09:16;;;;;;;50.90;30.63;;;;;;;-0.41;100.00;101473.91;10444050;28;20120;-86
2022/12/04 01:14:16;;;;;;;57.25;36.20;;;;;;;-0.39;100.00;101474.09;10471625;28;20062;-85
2022/12/04 01:19:17;;;;;;;57.63;34.20;;;;;;;-0.41;100.00;101473.91;10449112;28;20127;-86
2022/12/04 01:24:17;;;;;;;58.25;30.95;;;;;;;-0.41;100.00;101470.47;10466866;28;20045;-84
2022/12/04 01:29:18;;;;;;;50.55;31.25;;;;;;;-0.44;100.00;101476.19;10477812;28;20104;-84
2022/12/04 01:34:18;;;;;;;70.05;37.35;;;;;;;-0.50;100.00;101470.41;10480431;28;20101;-82
2022/12/04 01:39:19;;;;;;;66.97;34.65;;;;;;;-0.51;100.00;101466.03;10446441;28;20135;-86
2022/12/04 01:44:24;;;;;;;68.28;39.15;;;;;;;-0.43;100.00;101462.56;10459212;28;20043;-86
2022/12/04 01:49:25;;;;;;;56.10;33.17;;;;;;;-0.44;100.00;101468.47;10426384;28;20048;-86
2022/12/04 01:54:30;;;;;;;60.35;36.10;;;;;;;-0.48;100.00;101476.63;10477733;28;20120;-87
2022/12/04 01:59:34;;;;;;;60.97;35.22;;;;;;;-0.47;100.00;101465.59;10466821;28;20033;-86
2022/12/04 02:04:35;;;;;;;62.20;36.70;;;;;;;-0.41;100.00;101468.78;10431488;28;20044;-86
2022/12/04 02:09:35;;;;;;;58.72;39.30;;;;;;;-0.46;100.00;101459.69;10459878;28;20531;-86
2022/12/04 02:14:51;;;;;;;70.90;38.58;;;;;;;-0.49;100.00;101450.00;10446244;28;20047;-86
2022/12/04 02:20:38;;;;;;;62.67;38.45;;;;;;;-0.47;100.00;101453.66;10448650;28;20099;-85
2022/12/04 02:26:00;;;;;;;57.65;30.75;;;;;;;-0.42;100.00;101455.78;10414987;28;20049;-85
2022/12/04 02:31:00;;;;;;;51.10;33.03;;;;;;;-0.45;100.00;101446.06;10415785;28;20041;-87
2022/12/04 02:36:08;;;;;;;63.45;36.83;;;;;;;-0.48;100.00;101450.91;10447436;28;20132;-85
2022/12/04 02:41:43;;;;;;;57.40;34.13;;;;;;;-0.51;100.00;101451.53;10443466;28;20472;-86
2022/12/04 02:46:45;;;;;;;51.22;31.42;;;;;;;-0.49;100.00;101443.94;10391781;28;20037;-86
2022/12/04 02:51:46;;;;;;;63.33;35.08;;;;;;;-0.51;100.00;101445.44;10438540;28;20055;-88
2022/12/04 02:56:46;;;;;;;63.90;37.53;;;;;;;-0.54;100.00;101446.06;10420408;28;20044;-87
2022/12/04 03:01:48;;;;;;;60.03;34.28;;;;;;;-0.60;100.00;101453.16;10440400;28;20033;-86
2022/12/04 03:06:50;;;;;;;;;;;;;;;-0.53;100.00;101449.53;10441237;28;20037;-87
2022/12/04 03:11:54;;;;;;;63.07;38.43;;;;;;;-0.55;100.00;101451.97;10464573;28;20011;-87
2022/12/04 03:17:00;;;;;;;65.30;39.15;;;;;;;-0.58;100.00;101459.38;10435263;28;20394;-86
2022/12/04 03:22:03;;;;;;;70.57;38.50;;;;;;;-0.51;100.00;101451.53;10441720;28;20611;-86
2022/12/04 03:27:15;;;;;;;57.42;33.67;;;;;;;-0.57;100.00;101452.53;10438682;28;20048;-86
2022/12/04 03:32:37;;;;;;;61.97;34.83;;;;;;;-0.69;100.00;101450.53;10467411;28;20040;-87
2022/12/04 03:37:53;;;;;;;63.27;37.30;;;;;;;-0.64;100.00;101459.63;10455125;28;20106;-86
2022/12/04 03:43:03;;;;;;;55.55;32.60;;;;;;;-0.71;100.00;101446.00;10434884;28;20401;-87
2022/12/04 03:48:16;;;;;;;62.30;36.50;;;;;;;-0.65;100.00;101446.63;10449764;28;20064;-86
2022/12/04 03:53:37;;;;;;;59.50;35.28;;;;;;;-0.71;100.00;101448.59;10446563;28;20037;-87
2022/12/04 03:58:38;;;;;;;61.50;35.00;;;;;;;-0.68;100.00;101456.59;10450575;28;20128;-87
2022/12/04 04:03:41;;;;;;;57.37;36.30;;;;;;;-0.63;100.00;101456.31;10444918;28;20044;-83
2022/12/04 04:08:43;;;;;;;59.70;36.72;;;;;;;-0.64;100.00;101449.34;10462280;28;20049;-86
2022/12/04 04:24:35;;;;;;;63.67;38.38;;;;;;;-0.68;100.00;101436.94;10444947;28;20032;-87
2022/12/04 04:29:36;;;;;;;70.72;39.30;;;;;;;-0.68;100.00;101436.03;10482803;28;20543;-86
2022/12/04 04:34:53;;;;;;;70.20;40.85;;;;;;;-0.79;100.00;101430.72;10458413;28;20041;-89
2022/12/04 04:40:00;;;;;;;63.95;37.55;;;;;;;-0.64;100.00;101433.03;10426825;28;20032;-84
2022/12/04 04:45:12;;;;;;;70.35;40.95;;;;;;;-0.68;100.00;101441.19;10458839;28;20048;-85
2022/12/04 04:50:13;;;;;;;66.78;39.60;;;;;;;-0.72;100.00;101445.09;10462170;28;20033;-83
2022/12/04 04:55:14;;;;;;;65.07;36.17;;;;;;;-0.69;100.00;101444.50;10440878;28;20041;-84
2022/12/04 05:00:21;;;;;;;72.30;42.08;;;;;;;-0.71;100.00;101448.59;10440822;28;20644;-84
2022/12/04 05:05:22;;;;;;;68.70;42.67;;;;;;;-0.61;100.00;101436.81;10425543;28;20044;-86
2022/12/04 05:10:23;;;;;;;67.35;42.10;;;;;;;-0.65;100.00;101437.25;10436240;28;20041;-84
2022/12/04 05:15:23;;;;;;;58.95;36.95;;;;;;;-0.66;100.00;101434.53;10433632;28;20044;-84
2022/12/04 05:20:23;;;;;;;63.88;38.92;;;;;;;-0.75;100.00;101438.00;10429511;28;20097;-83
2022/12/04 05:25:24;;;;;;;72.90;38.83;;;;;;;-0.79;100.00;101428.16;10467607;28;20436;-87
2022/12/04 05:30:25;;;;;;;66.80;40.15;;;;;;;-0.72;100.00;101436.47;10427594;28;20043;-89
2022/12/04 05:35:25;;;;;;;61.75;38.00;;;;;;;-0.70;100.00;101435.88;10438571;28;20041;-87
2022/12/04 05:40:26;;;;;;;66.32;40.35;;;;;;;-0.71;100.00;101436.63;10433506;28;20052;-88
2022/12/04 05:45:26;;;;;;;61.22;40.15;;;;;;;-0.83;100.00;101431.16;10443355;28;20147;-88
2022/12/04 05:50:27;;;;;;;62.28;38.75;;;;;;;-0.93;100.00;101418.13;10480623;28;20119;-89
2022/12/04 05:55:27;;;;;;;62.53;38.45;;;;;;;-0.99;100.00;101422.63;10480110;28;20044;-88
2022/12/04 06:00:28;;;;;;;63.80;37.15;;;;;;;-0.96;100.00;101426.41;10456830;28;20041;-84
2022/12/04 06:05:28;;;;;;;59.72;38.13;;;;;;;-1.09;100.00;101423.31;10424228;28;20484;-82
2022/12/04 06:10:29;;;;;;;66.30;37.85;;;;;;;-1.22;100.00;101421.16;10440031;28;20083;-82
2022/12/04 06:15:29;;;;;;;63.80;36.08;;;;;;;-1.47;100.00;101418.59;10454775;28;20123;-84
2022/12/04 06:20:31;;;;;;;61.07;38.20;;;;;;;-1.53;100.00;101428.22;10455787;28;20037;-86
2022/12/04 06:25:31;;;;;;;77.95;38.67;;;;;;;-1.49;100.00;101441.53;10473849;28;20072;-87
2022/12/04 06:30:32;;;;;;;67.55;39.65;;;;;;;-1.41;100.00;101438.88;10418999;28;20761;-88
2022/12/04 06:35:33;;;;;;;63.67;35.57;;;;;;;-1.35;100.00;101442.06;10440450;28;20056;-84
2022/12/04 06:40:33;;;;;;;64.28;41.25;;;;;;;-1.18;100.00;101446.41;10437521;28;20466;-85
2022/12/04 06:45:34;;;;;;;66.05;37.78;;;;;;;-1.05;100.00;101443.44;10435002;28;20128;-84
2022/12/04 06:50:34;;;;;;;53.90;36.03;;;;;;;-0.95;100.00;101450.47;10408042;28;20041;-81
2022/12/04 06:55:35;;;;;;;53.30;34.95;;;;;;;-0.92;100.00;101450.78;10418642;28;20132;-85
2022/12/04 07:00:36;;;;;;;52.58;33.30;;;;;;;-0.99;100.00;101449.22;10432447;28;20091;-86
2022/12/04 07:05:37;;;;;;;54.90;33.57;;;;;;;-1.01;100.00;101453.28;10446518;28;20090;-88
2022/12/04 07:10:37;;;;;;;50.65;34.38;;;;;;;-0.96;100.00;101457.25;10444882;28;20186;-85
2022/12/04 07:15:38;;;;;;;47.35;30.13;;;;;;;-0.90;100.00;101445.03;10440317;28;20041;-84
2022/12/04 07:20:38;;;;;;;41.88;25.65;;;;;;;-0.82;100.00;101452.59;10464231;28;20156;-84
2022/12/04 07:25:39;;;;;;;49.95;29.10;;;;;;;-0.77;100.00;101457.47;10438448;28;20588;-85
2022/12/04 07:30:40;;;;;;;37.78;23.02;;;;;;;-0.77;100.00;101451.41;10441453;28;20045;-85
2022/12/04 07:35:41;;;;;;;41.80;21.88;;;;;;;-0.76;100.00;101460.94;10448264;28;20025;-85
2022/12/04 07:40:41;;;;;;;34.45;18.45;;;;;;;-0.67;100.00;101461.00;10448141;28;20037;-85
2022/12/04 07:45:42;;;;;;;39.22;22.05;;;;;;;-0.69;100.00;101476.25;10414158;28;20129;-85
2022/12/04 07:50:42;;;;;;;32.78;20.75;;;;;;;-0.64;100.00;101480.19;10450600;28;20042;-85
2022/12/04 07:55:43;;;;;;;30.73;19.02;;;;;;;-0.56;100.00;101482.66;10445016;28;20039;-84
2022/12/04 08:00:43;;;;;;;34.47;22.38;;;;;;;-0.55;100.00;101481.91;10475195;28;20488;-85
2022/12/04 08:05:44;;;;;;;38.40;20.63;;;;;;;-0.47;100.00;101481.94;10481096;28;20064;-84
2022/12/04 08:10:44;;;;;;;37.50;22.70;;;;;;;-0.48;100.00;101494.63;10455516;28;20501;-85
2022/12/04 08:15:45;;;;;;;34.70;20.70;;;;;;;-0.43;100.00;101478.00;10453653;28;20041;-83
2022/12/04 08:20:45;;;;;;;37.63;23.35;;;;;;;-0.32;100.00;101479.09;10462988;28;20622;-81
2022/12/04 08:25:47;;;;;;;34.20;20.90;;;;;;;-0.24;100.00;101477.28;10448034;28;25537;-84
2022/12/04 08:30:47;;;;;;;29.33;19.15;;;;;;;-0.23;99.97;101480.03;10432300;28;20107;-86
2022/12/04 08:35:48;;;;;;;33.22;19.23;;;;;;;-0.21;99.94;101486.25;10420092;28;20428;-89
2022/12/04 08:40:48;;;;;;;35.58;19.80;;;;;;;-0.17;99.68;101479.72;10458432;28;20123;-90
2022/12/04 08:45:58;;;;;;;34.55;19.95;;;;;;;-0.15;99.72;101470.50;10433116;28;20120;-90
2022/12/04 08:50:58;;;;;;;38.38;20.50;;;;;;;-0.08;99.27;101466.88;10455444;28;20090;-86
2022/12/04 08:55:59;;;;;;;29.73;18.45;;;;;;;-0.11;98.89;101470.03;10449414;28;20090;-93
2022/12/04 09:01:10;;;;;;;34.30;19.15;;;;;;;-0.04;98.41;101477.63;10474491;28;20032;-89
2022/12/04 09:06:12;;;;;;;36.25;20.42;;;;;;;-0.07;97.01;101476.41;10442111;28;20063;-92
2022/12/04 09:11:14;;;;;;;33.47;22.38;;;;;;;-0.04;97.07;101477.63;10417803;28;20120;-89
2022/12/04 09:16:15;;;;;;;;;;;;;;;-0.08;94.86;101465.19;10418782;28;20469;-85
2022/12/04 09:21:18;;;;;;;31.23;21.23;;;;;;;-0.16;94.21;101460.94;10396627;28;20285;-87
2022/12/04 09:26:27;;;;;;;32.78;21.33;;;;;;;-0.20;93.73;101458.81;10397816;28;20048;-93
2022/12/04 09:31:27;;;;;;;27.17;19.83;;;;;;;-0.27;94.28;101469.25;10395520;28;20107;-84
2022/12/04 09:36:28;;;;;;;43.20;25.15;;;;;;;-0.16;95.17;101482.47;10439185;28;20552;-83
2022/12/04 09:42:03;;;;;;;34.72;22.73;;;;;;;-0.05;96.45;101483.53;10418472;28;20470;-84
2022/12/04 09:47:08;;;;;;;35.33;21.00;;;;;;;-0.01;95.50;101485.66;10402136;28;20061;-83
2022/12/04 09:52:47;;;;;;;32.88;23.80;;;;;;;-0.10;95.02;101486.41;10446435;28;20052;-86
2022/12/04 09:57:50;;;;;;;28.15;19.67;;;;;;;-0.04;95.41;101479.31;10464556;28;20072;-86
2022/12/04 10:02:54;;;;;;;33.30;21.17;;;;;;;-0.11;95.80;101480.34;10431016;28;20045;-87
2022/12/04 10:08:03;;;;;;;31.95;19.98;;;;;;;-0.16;95.75;101481.53;10415581;28;20132;-86
2022/12/04 10:13:27;;;;;;;33.40;21.83;;;;;;;-0.20;95.85;101488.06;10434330;28;20047;-86
2022/12/04 10:18:51;;;;;;;31.65;17.95;;;;;;;-0.22;96.14;101493.78;10439167;28;20052;-87
2022/12/04 10:24:07;;;;;;;31.23;17.92;;;;;;;-0.25;95.78;101496.97;10472834;28;20480;-86
2022/12/04 10:29:15;;;;;;;31.40;18.58;;;;;;;-0.28;95.52;101488.94;10422123;28;20083;-87
2022/12/04 10:34:22;;;;;;;25.77;17.02;;;;;;;-0.26;94.66;101483.94;10410579;28;20703;-86
2022/12/04 10:39:35;;;;;;;24.38;16.48;;;;;;;-0.19;94.12;101478.66;10428727;28;20040;-87
2022/12/04 10:44:36;;;;;;;28.60;19.58;;;;;;;-0.20;94.28;101479.41;10474456;28;20549;-86
2022/12/04 10:49:36;;;;;;;26.63;17.42;;;;;;;-0.11;93.88;101477.75;10465082;28;20089;-87
2022/12/04 10:54:58;;;;;;;27.20;17.83;;;;;;;-0.05;93.55;101473.22;10473423;28;20043;-87
2022/12/04 10:59:59;;;;;;;34.60;20.20;;;;;;;-0.04;93.22;101466.44;10472989;28;20039;-88
2022/12/04 11:05:01;;;;;;;26.70;20.23;;;;;;;0.05;92.82;101464.78;10452150;28;20051;-89
2022/12/04 11:10:17;;;;;;;22.98;16.00;;;;;;;-0.24;92.70;101467.00;10459519;28;20167;-89
2022/12/04 11:15:17;;;;;;;30.02;19.65;;;;;;;-0.33;93.57;101449.00;10429106;28;20516;-88
2022/12/04 11:20:25;;;;;;;34.97;21.58;;;;;;;-0.19;94.62;101453.84;10426183;28;20048;-86
2022/12/04 11:25:29;;;;;;;28.85;20.42;;;;;;;-0.11;94.71;101458.84;10444554;28;20037;-87
2022/12/04 11:30:34;;;;;;;30.23;19.30;;;;;;;-0.13;93.10;101445.81;10432621;28;20040;-91
2022/12/04 11:35:41;;;;;;;26.05;17.33;;;;;;;-0.09;92.04;101444.47;10439953;28;20544;-87
2022/12/04 11:40:46;;;;;;;33.58;18.85;;;;;;;-0.14;92.97;101437.97;10445550;28;20127;-85
2022/12/04 11:45:54;;;;;;;36.60;18.77;;;;;;;-0.15;92.52;101431.91;10440313;28;20039;-87
2022/12/04 11:51:20;;;;;;;27.20;18.98;;;;;;;-0.14;93.10;101432.81;10439324;28;20041;-89
2022/12/04 11:56:25;;;;;;;36.90;20.70;;;;;;;-0.11;93.62;101434.03;10433381;28;20051;-88
2022/12/04 12:01:47;;;;;;;26.27;18.00;;;;;;;0.03;93.42;101432.81;10456534;28;20110;-89
2022/12/04 12:07:29;;;;;;;28.65;19.67;;;;;;;-0.08;92.40;101418.88;10464042;28;20045;-85
2022/12/04 12:13:04;;;;;;;25.35;18.20;;;;;;;-0.03;92.16;101427.06;10387648;28;20389;-86
2022/12/04 12:18:16;;;;;;;30.00;19.33;;;;;;;-0.06;93.09;101417.38;10456168;28;20147;-87
2022/12/04 12:23:33;;;;;;;27.23;18.08;;;;;;;-0.11;92.95;101404.81;10444772;28;20064;-89
2022/12/04 12:28:37;;;;;;;30.25;18.80;;;;;;;-0.04;92.47;101410.72;10452284;28;20047;-88
2022/12/04 12:33:42;;;;;;;33.80;20.42;;;;;;;-0.11;91.86;101412.53;10456710;28;20116;-89
2022/12/04 12:38:42;;;;;;;26.92;18.60;;;;;;;-0.11;93.17;101416.00;10466499;28;20048;-89
2022/12/04 12:43:46;;;;;;;31.98;21.10;;;;;;;-0.17;93.76;101415.41;10471052;28;20045;-81
2022/12/04 12:48:52;;;;;;;34.25;22.70;;;;;;;-0.16;93.98;101413.00;10439579;28;20090;-86
2022/12/04 12:53:53;;;;;;;29.25;19.33;;;;;;;-0.16;93.92;101409.50;10465622;28;20049;-87
2022/12/04 12:58:55;;;;;;;29.00;18.65;;;;;;;-0.16;94.09;101419.78;10452774;28;20509;-87
2022/12/04 13:04:09;;;;;;;30.02;20.15;;;;;;;-0.24;93.62;101407.81;10427804;28;20029;-86
2022/12/04 13:09:25;;;;;;;33.42;19.85;;;;;;;-0.23;93.65;101404.50;10467819;28;20029;-88
2022/12/04 13:14:26;;;;;;;31.00;20.75;;;;;;;-0.21;94.13;101392.69;10465791;28;20101;-87
2022/12/04 13:19:42;;;;;;;28.02;19.75;;;;;;;-0.17;94.79;101387.09;10451220;28;20549;-88
2022/12/04 13:24:54;;;;;;;26.00;18.45;;;;;;;-0.13;94.80;101390.91;10452849;28;20409;-88
2022/12/04 13:30:15;;;;;;;30.25;20.77;;;;;;;-0.13;94.39;101386.63;10450146;28;20041;-88
2022/12/04 13:35:27;;;;;;;30.45;18.55;;;;;;;-0.20;95.00;101382.56;10444611;28;21495;-87
2022/12/04 13:40:29;;;;;;;29.75;20.40;;;;;;;-0.22;95.55;101389.22;10451211;28;20040;-87
2022/12/04 13:45:31;;;;;;;26.52;19.35;;;;;;;-0.22;95.99;101385.72;10462684;28;20049;-84
2022/12/04 13:50:33;;;;;;;34.25;22.33;;;;;;;-0.22;95.66;101389.22;10444710;28;20056;-87
2022/12/04 13:55:38;;;;;;;39.22;21.95;;;;;;;-0.20;96.27;101384.22;10473941;28;20032;-88
2022/12/04 14:00:42;;;;;;;33.13;21.98;;;;;;;-0.23;95.78;101389.97;10465906;28;20051;-91
2022/12/04 14:05:43;;;;;;;35.00;20.05;;;;;;;-0.20;96.68;101377.41;10428394;28;20481;-87
2022/12/04 14:11:04;;;;;;;35.63;22.17;;;;;;;-0.17;96.12;101376.81;10457373;28;20069;-89
2022/12/04 14:16:08;;;;;;;30.00;21.60;;;;;;;-0.19;97.00;101383.47;10478267;28;20041;-91
2022/12/04 14:21:08;;;;;;;31.75;22.27;;;;;;;-0.14;97.48;101360.78;10418224;28;20056;-92
2022/12/04 14:26:27;;;;;;;33.45;24.35;;;;;;;-0.19;96.88;101361.22;10463335;28;20080;-90
2022/12/04 14:31:38;;;;;;;33.28;26.27;;;;;;;-0.12;97.00;101361.84;10447699;28;20106;-90
2022/12/04 14:36:42;;;;;;;32.00;23.90;;;;;;;-0.03;97.37;101366.19;10427306;28;20038;-92
2022/12/04 14:41:43;;;;;;;41.97;26.23;;;;;;;-0.02;97.36;101370.59;10429890;28;20052;-90
2022/12/04 14:46:46;;;;;;;39.78;24.63;;;;;;;-0.04;97.39;101378.94;10413517;28;20140;-92
2022/12/04 14:52:08;;;;;;;36.40;25.13;;;;;;;-0.05;97.95;101380.59;10428300;28;20037;-91
2022/12/04 14:57:50;;;;;;;39.90;24.00;;;;;;;0.00;97.87;101391.34;10449798;28;20047;-91
2022/12/04 15:02:55;;;;;;;35.90;24.23;;;;;;;0.05;97.84;101392.72;10295201;28;20054;-92
2022/12/04 15:07:58;;;;;;;39.80;24.15;;;;;;;0.04;97.45;101387.38;10442677;28;20089;-93
2022/12/04 15:12:58;;;;;;;41.42;23.77;;;;;;;0.09;97.34;101396.47;10431154;28;20115;-95
2022/12/04 15:18:00;;;;;;;37.38;23.77;;;;;;;0.08;97.32;101382.72;10479937;28;20127;-95
2022/12/04 15:23:00;;;;;;;40.67;26.17;;;;;;;0.00;97.70;101391.34;10438769;28;20069;-91
2022/12/04 15:28:07;;;;;;;34.20;21.40;;;;;;;-0.03;98.96;101391.03;10446501;28;20037;-91
2022/12/04 15:33:16;;;;;;;36.17;22.15;;;;;;;0.02;99.01;101394.97;10465434;28;20033;-87
2022/12/04 15:38:17;;;;;;;36.78;23.90;;;;;;;0.03;98.51;101395.88;10472374;28;20480;-93
2022/12/04 15:43:24;;;;;;;36.95;20.00;;;;;;;0.12;97.94;101392.56;10486097;28;20135;-90
2022/12/04 15:48:26;;;;;;;38.65;23.73;;;;;;;0.03;98.62;101394.22;10478052;28;20056;-91
2022/12/04 15:53:31;;;;;;;36.00;19.65;;;;;;;0.06;99.69;101397.09;10466986;28;20037;-92
2022/12/04 15:58:34;;;;;;;37.15;21.08;;;;;;;-0.04;100.00;101404.66;10427898;28;20530;-93
2022/12/04 16:03:40;;;;;;;35.13;19.90;;;;;;;-0.06;100.00;101401.03;10433976;28;20115;-86
2022/12/04 16:08:41;;;;;;;35.10;21.02;;;;;;;-0.07;100.00;101402.69;10706200;23;20032;-81
2022/12/04 16:13:43;;;;;;;38.97;23.15;;;;;;;-0.03;100.00;101393.63;10279153;28;20511;-94
2022/12/04 16:18:44;;;;;;;46.38;27.35;;;;;;;-0.05;100.00;101405.44;10277983;28;20041;-93
2022/12/04 16:23:44;;;;;;;41.50;22.58;;;;;;;-0.06;100.00;101398.47;10287530;28;20039;-92
2022/12/04 16:28:45;;;;;;;39.20;24.73;;;;;;;-0.05;100.00;101406.31;10281045;28;20458;-84
2022/12/04 16:33:45;;;;;;;39.35;24.33;;;;;;;-0.04;100.00;101413.28;10268536;28;20063;-93
2022/12/04 16:38:46;;;;;;;35.92;22.00;;;;;;;0.02;100.00;101400.13;10282776;28;20062;-85
2022/12/04 16:43:53;;;;;;;34.33;23.50;;;;;;;0.08;100.00;101404.94;10261216;28;20035;-87
2022/12/04 16:48:54;;;;;;;40.50;26.77;;;;;;;0.00;100.00;101409.38;10288542;28;20038;-89
2022/12/04 16:53:55;;;;;;;36.33;23.95;;;;;;;0.02;100.00;101407.84;10261789;28;20105;-89
2022/12/04 16:58:56;;;;;;;38.55;24.63;;;;;;;0.09;100.00;101404.19;10288678;28;20039;-88
2022/12/04 17:03:57;;;;;;;44.22;26.85;;;;;;;0.14;100.00;101408.13;10298318;28;20037;-86
2022/12/04 17:08:58;;;;;;;39.13;27.02;;;;;;;0.12;100.00;101410.56;10295636;28;20069;-85
2022/12/04 17:13:58;;;;;;;36.25;24.92;;;;;;;0.14;100.00;101409.06;10270052;28;20047;-91
2022/12/04 17:18:59;;;;;;;50.72;30.17;;;;;;;0.11;100.00;101415.56;10312979;28;20038;-88
2022/12/04 17:23:59;;;;;;;41.20;25.50;;;;;;;0.09;100.00;101424.78;10318490;28;20410;-85
2022/12/04 17:29:00;;;;;;;45.25;28.23;;;;;;;0.28;100.00;101432.66;10314271;28;20045;-88
2022/12/04 17:34:00;;;;;;;46.75;28.33;;;;;;;0.25;100.00;101435.84;10320598;28;20133;-92
2022/12/04 17:39:01;;;;;;;42.67;29.65;;;;;;;0.38;100.00;101431.88;10330638;28;20125;-95
2022/12/04 17:44:02;;;;;;;43.53;28.88;;;;;;;0.47;100.00;101419.91;10300290;28;20031;-90
2022/12/04 17:49:02;;;;;;;44.72;29.27;;;;;;;0.52;100.00;101426.41;10244335;28;20094;-91
2022/12/04 17:54:03;;;;;;;39.47;26.50;;;;;;;0.55;100.00;101439.59;10267193;28;20117;-92
2022/12/04 17:59:05;;;;;;;40.03;24.48;;;;;;;0.62;100.00;101432.44;10277733;28;20042;-92
2022/12/04 18:04:07;;;;;;;39.08;25.40;;;;;;;0.63;100.00;101431.69;10258163;28;20046;-89
2022/12/04 18:09:09;;;;;;;39.03;25.63;;;;;;;0.75;100.00;101420.00;10272191;28;20038;-91
2022/12/04 18:14:11;;;;;;;41.80;25.77;;;;;;;0.78;100.00;101416.81;10262920;28;20074;-90
2022/12/04 18:19:11;;;;;;;42.10;26.90;;;;;;;0.70;100.00;101419.56;10276918;28;20046;-89
2022/12/04 18:24:12;;;;;;;43.83;25.92;;;;;;;0.78;100.00;101422.84;10238096;28;20384;-88
2022/12/04 18:29:18;;;;;;;46.13;27.52;;;;;;;0.82;100.00;101412.09;10270796;28;20193;-88
2022/12/04 18:34:19;;;;;;;42.03;25.90;;;;;;;0.81;100.00;101409.38;10260926;28;20116;-90
2022/12/04 18:39:21;;;;;;;42.63;24.77;;;;;;;0.82;100.00;101401.78;10267785;28;20145;-90
2022/12/04 18:44:21;;;;;;;46.78;27.58;;;;;;;0.80;100.00;101398.13;10285096;28;20130;-91
2022/12/04 18:49:22;;;;;;;49.85;27.10;;;;;;;0.71;100.00;101405.00;10248842;28;20046;-94
2022/12/04 18:54:23;;;;;;;45.95;29.65;;;;;;;0.76;100.00;101406.34;10274670;28;20053;-93
2022/12/04 18:59:24;;;;;;;49.10;27.58;;;;;;;0.73;100.00;101406.03;10308710;28;20062;-93
2022/12/04 19:04:25;;;;;;;49.92;28.05;;;;;;;0.74;100.00;101405.28;10284597;28;20042;-93
2022/12/04 19:09:27;;;;;;;53.53;29.35;;;;;;;0.73;100.00;101406.97;10296927;28;20052;-94
2022/12/04 19:14:28;;;;;;;51.05;29.23;;;;;;;0.75;100.00;101414.84;10278361;28;20452;-92
2022/12/04 19:19:29;;;;;;;47.57;30.27;;;;;;;0.76;100.00;101421.81;10288730;28;20043;-84
2022/12/04 19:24:29;;;;;;;45.78;25.20;;;;;;;0.77;100.00;101415.88;10281601;28;20082;-92
2022/12/04 19:29:30;;;;;;;49.92;30.25;;;;;;;0.71;100.00;101423.03;10290559;28;20384;-92
2022/12/04 19:34:31;;;;;;;47.80;31.15;;;;;;;0.73;100.00;101419.84;10278623;28;20054;-90
2022/12/04 19:39:31;;;;;;;46.85;29.70;;;;;;;0.80;100.00;101426.50;10266197;28;20039;-90
2022/12/04 19:44:32;;;;;;;49.42;30.30;;;;;;;0.82;100.00;101427.53;10267662;28;20130;-89
2022/12/04 19:49:33;;;;;;;54.40;31.88;;;;;;;0.88;100.00;101432.41;10282787;28;20368;-89
2022/12/04 19:54:33;;;;;;;46.80;29.48;;;;;;;0.93;100.00;101436.31;10309662;28;20047;-89
2022/12/04 19:59:34;;;;;;;51.85;31.15;;;;;;;0.87;100.00;101428.91;10307960;28;20550;-88
2022/12/04 20:04:36;;;;;;;51.03;27.70;;;;;;;0.83;100.00;101434.50;10287227;28;20622;-89
2022/12/04 20:09:37;;;;;;;42.25;25.75;;;;;;;0.87;100.00;101433.16;10304881;28;20046;-89
2022/12/04 20:14:38;;;;;;;52.42;28.48;;;;;;;0.90;100.00;101433.44;10305061;28;20376;-89
2022/12/04 20:19:38;;;;;;;47.30;29.42;;;;;;;0.92;100.00;101431.94;10305495;28;20121;-90
2022/12/04 20:24:39;;;;;;;45.85;27.80;;;;;;;0.87;100.00;101434.03;10303867;28;20074;-90
2022/12/04 20:29:39;;;;;;;51.85;30.00;;;;;;;0.88;100.00;101433.28;10286796;28;20501;-88
2022/12/04 20:34:40;;;;;;;51.70;30.08;;;;;;;0.84;100.00;101428.59;10243194;28;20126;-89
2022/12/04 20:39:41;;;;;;;48.90;28.25;;;;;;;0.80;100.00;101438.47;10250058;28;20073;-89
2022/12/04 20:44:41;;;;;;;57.85;30.77;;;;;;;0.79;100.00;101440.13;10311095;28;20403;-86
2022/12/04 20:49:42;;;;;;;57.35;33.60;;;;;;;0.79;100.00;101441.81;10297359;28;20133;-89
2022/12/04 20:54:42;;;;;;;56.95;34.67;;;;;;;0.77;100.00;101443.34;10312529;28;20042;-90
2022/12/04 20:59:42;;;;;;;54.85;33.10;;;;;;;0.82;100.00;101437.84;10266454;28;20129;-90
2022/12/04 21:04:43;;;;;;;59.60;34.40;;;;;;;0.82;100.00;101435.28;10299357;28;20073;-89
2022/12/04 21:09:44;;;;;;;60.95;37.72;;;;;;;0.82;100.00;101445.59;10258411;28;20051;-90
2022/12/04 21:20:03;;;;;;;66.63;39.60;;;;;;;0.77;100.00;101433.94;10284159;28;20038;-93
2022/12/04 21:25:04;;;;;;;58.25;34.40;;;;;;;0.88;100.00;101425.56;10290464;28;20057;-91
2022/12/04 21:30:05;;;;;;;64.65;35.35;;;;;;;0.83;100.00;101431.94;10265517;28;20038;-89
2022/12/04 21:35:06;;;;;;;52.45;32.03;;;;;;;0.80;100.00;101425.59;10258982;28;20058;-90
2022/12/04 21:40:07;;;;;;;63.35;37.53;;;;;;;0.76;100.00;101432.13;10308887;28;20048;-89
2022/12/04 21:45:08;;;;;;;59.92;35.70;;;;;;;0.88;100.00;101424.66;10298530;28;20042;-93
2022/12/04 21:50:09;;;;;;;65.43;33.88;;;;;;;0.88;100.00;101422.09;10304474;28;20042;-92
2022/12/04 21:55:09;;;;;;;51.72;32.30;;;;;;;0.89;100.00;101429.06;10310240;28;20030;-92
2022/12/04 22:00:10;;;;;;;64.18;34.55;;;;;;;0.92;100.00;101423.28;10318086;28;20049;-93
2022/12/04 22:05:11;;;;;;;58.83;37.10;;;;;;;0.96;100.00;101426.31;10300036;28;20047;-92
2022/12/04 22:10:11;;;;;;;50.90;35.42;;;;;;;1.02;100.00;101429.47;10327313;28;20066;-94
2022/12/04 22:15:12;;;;;;;61.40;34.42;;;;;;;1.01;100.00;101447.34;10319600;28;20070;-95
2022/12/04 22:20:13;;;;;;;60.00;37.55;;;;;;;0.92;100.00;101454.19;10346964;28;20042;-94
2022/12/04 22:25:14;;;;;;;58.22;31.60;;;;;;;0.88;100.00;101450.44;10328995;28;20128;-93
2022/12/04 22:30:14;;;;;;;57.63;32.92;;;;;;;0.94;100.00;101466.50;10313332;28;20047;-94
2022/12/04 22:35:15;;;;;;;63.95;32.65;;;;;;;0.84;100.00;101467.25;10315839;28;20721;-92
2022/12/04 22:40:16;;;;;;;50.10;32.65;;;;;;;0.78;100.00;101469.25;10300399;28;20109;-93
2022/12/04 22:45:16;;;;;;;57.15;32.13;;;;;;;0.76;100.00;101473.34;10304637;28;20089;-92
2022/12/04 22:50:17;;;;;;;58.40;33.13;;;;;;;0.71;100.00;101474.56;10323722;28;20043;-92
2022/12/04 22:55:17;;;;;;;60.90;33.95;;;;;;;0.74;100.00;101474.88;10325454;28;20552;-92
2022/12/04 23:00:18;;;;;;;62.70;33.55;;;;;;;0.78;100.00;101468.34;10322717;28;22218;-93